createdAt,value
2023-03-22T00:00:55.096Z,11.95
2023-03-22T00:04:56.700Z,12.43
2023-03-22T00:08:58.158Z,13.02
2023-03-22T00:13:00.956Z,12.77
2023-03-22T00:17:02.393Z,12.65
2023-03-22T00:21:04.015Z,12.35
2023-03-22T00:25:06.505Z,12.45
2023-03-22T00:29:07.995Z,12.48
2023-03-22T00:33:09.772Z,12.25
2023-03-22T00:37:11.430Z,12.02
2023-03-22T00:41:16.354Z,12.60
2023-03-22T00:45:20.843Z,13.65
2023-03-22T00:49:22.320Z,13.15
2023-03-22T00:53:24.023Z,13.77
2023-03-22T00:57:25.776Z,14.60
2023-03-22T01:01:27.392Z,12.68
2023-03-22T01:05:34.850Z,14.13
2023-03-22T01:09:36.457Z,14.30
2023-03-22T01:13:38.526Z,13.80
2023-03-22T01:17:40.218Z,13.52
2023-03-22T01:21:41.995Z,13.45
2023-03-22T01:25:43.522Z,14.38
2023-03-22T01:29:45.039Z,13.18
2023-03-22T01:33:46.476Z,13.05
2023-03-22T01:37:48.054Z,13.27
2023-03-22T01:41:49.524Z,13.15
2023-03-22T01:45:58.608Z,13.13
2023-03-22T01:50:00.389Z,13.30
2023-03-22T01:54:07.133Z,13.75
2023-03-22T01:58:08.800Z,12.95
2023-03-22T02:02:18.885Z,13.88
2023-03-22T02:06:21.545Z,13.68
2023-03-22T02:10:26.296Z,13.20
2023-03-22T02:14:59.943Z,13.13
2023-03-22T02:19:10.378Z,13.07
2023-03-22T02:23:17.890Z,12.55
2023-03-22T02:27:56.604Z,14.23
2023-03-22T02:32:37.468Z,12.63
2023-03-22T02:37:11.871Z,13.05
2023-03-22T02:41:27.881Z,14.07
2023-03-22T02:45:36.807Z,13.30
2023-03-22T02:49:49.948Z,13.60
2023-03-22T02:54:08.141Z,13.00
2023-03-22T02:58:21.747Z,13.65
2023-03-22T03:02:24.704Z,13.00
2023-03-22T03:06:31.748Z,12.52
2023-03-22T03:10:34.466Z,12.43
2023-03-22T03:14:35.917Z,12.38
2023-03-22T03:19:11.023Z,13.68
2023-03-22T03:23:39.483Z,10.43
2023-03-22T03:27:49.812Z,13.02
2023-03-22T03:32:09.672Z,13.07
2023-03-22T03:36:15.623Z,13.30
2023-03-22T03:40:26.146Z,13.45
2023-03-22T03:44:30.428Z,12.40
2023-03-22T03:48:34.886Z,13.10
2023-03-22T03:52:36.646Z,13.27
2023-03-22T03:56:38.091Z,12.50
2023-03-22T04:00:39.864Z,14.02
2023-03-22T04:04:41.548Z,13.05
2023-03-22T04:08:45.418Z,11.75
2023-03-22T04:12:46.845Z,13.02
2023-03-22T04:16:48.577Z,12.95
2023-03-22T04:20:53.472Z,14.23
2023-03-22T04:24:55.833Z,14.43
2023-03-22T04:28:58.551Z,12.63
2023-03-22T04:33:01.248Z,12.93
2023-03-22T04:37:02.739Z,13.27
2023-03-22T04:41:05.402Z,12.07
2023-03-22T04:45:07.853Z,12.70
2023-03-22T04:49:09.375Z,13.85
2023-03-22T04:53:12.365Z,14.48
2023-03-22T04:57:13.955Z,12.70
2023-03-22T05:01:18.089Z,14.13
2023-03-22T05:05:19.597Z,12.93
2023-03-22T05:09:23.325Z,14.38
2023-03-22T05:13:27.807Z,12.90
2023-03-22T05:17:29.236Z,13.93
2023-03-22T05:21:36.737Z,14.65
2023-03-22T05:25:38.357Z,14.65
2023-03-22T05:29:45.101Z,14.30
2023-03-22T05:33:50.493Z,14.68
2023-03-22T05:37:52.826Z,14.68
2023-03-22T05:41:54.447Z,15.48
2023-03-22T05:45:55.987Z,15.55
2023-03-22T05:49:57.416Z,16.15
2023-03-22T05:53:58.876Z,15.52
2023-03-22T05:58:02.740Z,14.60
2023-03-22T06:02:04.314Z,14.57
2023-03-22T06:06:10.666Z,15.68
2023-03-22T06:10:13.937Z,14.70
2023-03-22T06:14:15.823Z,14.95
2023-03-22T06:18:17.650Z,15.05
2023-03-22T06:22:19.184Z,14.02
2023-03-22T06:26:20.650Z,16.33
2023-03-22T06:30:22.254Z,15.38
2023-03-22T06:34:23.733Z,15.68
2023-03-22T06:38:25.449Z,14.45
2023-03-22T06:42:27.004Z,13.77
2023-03-22T06:46:28.648Z,13.93
2023-03-22T06:50:30.260Z,14.05
2023-03-22T06:54:31.738Z,15.18
2023-03-22T06:58:33.218Z,13.68
2023-03-22T07:02:34.623Z,13.82
2023-03-22T07:06:36.095Z,12.90
2023-03-22T07:10:38.126Z,13.27
2023-03-22T07:14:39.984Z,12.90
2023-03-22T07:18:41.567Z,12.93
2023-03-22T07:22:43.122Z,13.05
2023-03-22T07:26:45.920Z,12.13
2023-03-22T07:30:47.571Z,10.85
2023-03-22T07:34:49.044Z,11.70
2023-03-22T07:38:51.730Z,11.48
2023-03-22T07:42:55.749Z,11.93
2023-03-22T07:46:57.613Z,11.30
2023-03-22T07:50:59.127Z,8.82
2023-03-22T07:55:00.671Z,10.30
2023-03-22T07:59:02.409Z,9.27
2023-03-22T08:03:04.322Z,8.85
2023-03-22T08:07:05.849Z,9.30
2023-03-22T08:11:07.542Z,9.60
2023-03-22T08:15:09.897Z,8.23
2023-03-22T08:19:11.364Z,6.10
2023-03-22T08:23:16.752Z,8.65
2023-03-22T08:27:18.928Z,8.40
2023-03-22T08:31:20.639Z,7.30
2023-03-22T08:35:22.266Z,8.18
2023-03-22T08:39:24.715Z,2.88
2023-03-22T08:43:26.416Z,7.80
2023-03-22T08:47:27.932Z,8.10
2023-03-22T08:51:31.259Z,6.93
2023-03-22T08:55:35.339Z,7.13
2023-03-22T08:59:36.865Z,7.75
2023-03-22T09:03:38.379Z,7.63
2023-03-22T09:07:39.925Z,5.90
2023-03-22T09:11:42.693Z,6.72
2023-03-22T09:15:45.091Z,5.93
2023-03-22T09:19:47.854Z,7.78
2023-03-22T09:23:50.386Z,4.97
2023-03-22T09:27:51.932Z,6.03
2023-03-22T09:31:53.555Z,5.43
2023-03-22T09:35:56.972Z,6.07
2023-03-22T09:39:58.515Z,6.38
2023-03-22T09:44:05.229Z,5.65
2023-03-22T09:48:14.452Z,6.65
2023-03-22T09:52:17.370Z,6.85
2023-03-22T09:56:29.349Z,4.82
2023-03-22T10:00:39.834Z,6.97
2023-03-22T10:05:17.459Z,5.45
2023-03-22T10:09:43.388Z,5.70
2023-03-22T10:14:09.782Z,5.30
2023-03-22T10:18:22.262Z,5.95
2023-03-22T10:22:33.142Z,4.78
2023-03-22T10:26:39.286Z,4.40
2023-03-22T10:30:42.839Z,4.65
2023-03-22T10:34:45.434Z,5.07
2023-03-22T10:38:50.410Z,5.07
2023-03-22T10:42:56.580Z,4.30
2023-03-22T10:47:07.211Z,5.03
2023-03-22T10:51:19.520Z,5.32
2023-03-22T10:55:21.086Z,4.95
2023-03-22T10:59:44.408Z,4.55
2023-03-22T11:03:51.026Z,3.83
2023-03-22T11:07:52.992Z,3.40
2023-03-22T11:11:58.137Z,3.83
2023-03-22T11:16:02.648Z,3.83
2023-03-22T11:20:10.624Z,2.92
2023-03-22T11:24:13.931Z,1.95
2023-03-22T11:28:26.933Z,2.35
2023-03-22T11:32:31.089Z,2.00
2023-03-22T11:36:43.645Z,3.90
2023-03-22T11:40:53.681Z,3.75
2023-03-22T11:44:56.832Z,2.63
2023-03-22T11:49:02.569Z,3.60
2023-03-22T11:53:08.911Z,2.47
2023-03-22T11:57:15.657Z,3.95
2023-03-22T12:01:27.562Z,4.18
2023-03-22T12:05:31.982Z,3.63
2023-03-22T12:09:41.571Z,3.45
2023-03-22T12:13:53.920Z,3.65
2023-03-22T12:18:15.643Z,2.30
2023-03-22T12:22:32.014Z,3.80
2023-03-22T12:26:35.150Z,3.03
2023-03-22T12:30:44.545Z,2.47
2023-03-22T12:38:54.281Z,3.47
2023-03-22T12:43:08.051Z,1.75
2023-03-22T12:47:25.068Z,2.38
2023-03-22T12:51:26.587Z,1.60
2023-03-22T12:55:38.004Z,2.72
2023-03-22T12:59:48.485Z,2.13
2023-03-22T13:03:53.669Z,1.80
2023-03-22T13:07:59.247Z,2.45
2023-03-22T13:12:19.031Z,2.25
2023-03-22T13:20:29.272Z,1.92
2023-03-22T13:24:32.556Z,1.70
2023-03-22T13:28:37.429Z,1.60
2023-03-22T13:32:52.091Z,1.45
2023-03-22T13:36:56.681Z,2.33
2023-03-22T13:41:10.271Z,1.73
2023-03-22T13:45:31.625Z,1.90
2023-03-22T13:50:09.476Z,1.98
2023-03-22T13:54:16.314Z,1.85
2023-03-22T13:58:34.888Z,1.23
2023-03-22T14:02:43.928Z,2.50
2023-03-22T14:06:59.307Z,2.28
2023-03-22T14:11:25.334Z,1.70
2023-03-22T14:15:32.650Z,1.50
2023-03-22T14:19:35.685Z,1.52
